Clairemont, Texas
Current Conditions -  °F | °C
As of 5:15 PM on Saturday 27 Dec 2014 (Local Time) from KSNK Reporting Station
Clear Clear  
Wind Chill: 30°   Ceiling: Unl
Heat Index: 36°   Visibility: 10mi
Dew Point: 21°   Wind: 7mph
Humidity: 55%   Direction: 10°N
Pressure: 30.26"   Gusts: NA
Location:  33.0123°N, 100.833°W
Report Text: KSNK 272315Z AUTO 01006KT 10SM CLR 02/M06 A3026 RMK AO2 T00221061
Loading
Personal Weather Stations






























Interactive Weather Map New forecast layout! Learn more

10-Day Weather Forecast

Advertisements
Track Severe Weather on mobile